createdAt,value
2023-08-20T00:01:24.409Z,46.70
2023-08-20T00:03:52.529Z,44.85
2023-08-20T00:06:19.783Z,40.55
2023-08-20T00:08:46.457Z,43.47
2023-08-20T00:11:14.123Z,39.28
2023-08-20T00:13:40.862Z,40.35
2023-08-20T00:16:07.975Z,38.05
2023-08-20T00:18:36.720Z,39.75
2023-08-20T00:21:04.801Z,36.35
2023-08-20T00:23:31.742Z,36.47
2023-08-20T00:25:58.382Z,39.83
2023-08-20T00:28:24.750Z,30.52
2023-08-20T00:30:51.117Z,33.13
2023-08-20T00:33:18.154Z,33.00
2023-08-20T00:35:44.539Z,26.27
2023-08-20T00:38:11.035Z,24.52
2023-08-20T00:40:37.415Z,24.33
2023-08-20T00:43:03.932Z,22.55
2023-08-20T00:45:31.326Z,22.13
2023-08-20T00:47:57.890Z,19.80
2023-08-20T00:50:24.300Z,22.13
2023-08-20T00:52:50.819Z,25.25
2023-08-20T00:55:17.375Z,16.92
2023-08-20T00:57:43.811Z,21.27
2023-08-20T01:00:11.078Z,16.13
2023-08-20T01:02:38.767Z,20.98
2023-08-20T01:05:07.760Z,17.30
2023-08-20T01:08:09.224Z,20.27
2023-08-20T01:10:54.329Z,25.02
2023-08-20T01:15:47.088Z,24.25
2023-08-20T01:18:13.535Z,18.88
2023-08-20T01:20:48.108Z,22.20
2023-08-20T01:23:17.200Z,26.25
2023-08-20T01:26:00.969Z,20.38
2023-08-20T01:28:29.988Z,24.27
2023-08-20T01:30:58.257Z,21.27
2023-08-20T01:33:25.456Z,24.65
2023-08-20T01:35:53.153Z,21.08
2023-08-20T01:38:19.615Z,20.27
2023-08-20T01:40:46.240Z,22.90
2023-08-20T01:43:12.619Z,22.50
2023-08-20T01:45:39.021Z,15.35
2023-08-20T01:48:05.846Z,16.90
2023-08-20T01:50:33.109Z,17.05
2023-08-20T01:52:59.470Z,13.93
2023-08-20T01:55:25.849Z,17.60
2023-08-20T01:57:52.338Z,13.20
2023-08-20T02:00:18.756Z,18.30
2023-08-20T02:05:33.115Z,14.27
2023-08-20T02:07:59.581Z,16.23
2023-08-20T02:10:25.963Z,13.60
2023-08-20T02:12:52.317Z,14.70
2023-08-20T02:15:18.700Z,16.20
2023-08-20T02:17:45.060Z,17.50
2023-08-20T02:20:11.978Z,13.10
2023-08-20T02:22:38.401Z,15.73
2023-08-20T02:25:05.196Z,19.30
2023-08-20T02:27:31.717Z,16.88
2023-08-20T02:29:58.129Z,20.00
2023-08-20T02:32:24.617Z,15.65
2023-08-20T02:34:52.286Z,16.42
2023-08-20T02:37:18.753Z,13.38
2023-08-20T02:39:45.274Z,15.52
2023-08-20T02:42:11.671Z,13.70
2023-08-20T02:44:38.013Z,15.32
2023-08-20T02:47:04.481Z,13.18
2023-08-20T02:49:30.812Z,14.85
2023-08-20T02:51:57.177Z,9.90
2023-08-20T02:54:23.508Z,17.52
2023-08-20T02:56:49.868Z,15.00
2023-08-20T02:59:16.199Z,13.95
2023-08-20T03:01:42.585Z,16.77
2023-08-20T03:04:08.974Z,17.15
2023-08-20T03:06:35.323Z,15.75
2023-08-20T03:09:01.680Z,15.40
2023-08-20T03:11:28.025Z,16.70
2023-08-20T03:13:54.386Z,16.73
2023-08-20T03:16:20.770Z,14.57
2023-08-20T03:18:47.181Z,20.23
2023-08-20T03:21:13.530Z,14.02
2023-08-20T03:23:39.928Z,11.40
2023-08-20T03:26:06.283Z,10.32
2023-08-20T03:28:32.641Z,13.02
2023-08-20T03:31:01.927Z,11.38
2023-08-20T03:33:28.451Z,12.48
2023-08-20T03:35:57.294Z,10.75
2023-08-20T03:38:25.125Z,12.73
2023-08-20T03:40:51.485Z,14.75
2023-08-20T03:43:17.827Z,12.27
2023-08-20T03:45:44.215Z,12.40
2023-08-20T03:48:10.612Z,13.57
2023-08-20T03:50:37.645Z,12.55
2023-08-20T03:53:04.179Z,12.52
2023-08-20T03:55:30.581Z,9.35
2023-08-20T03:57:56.955Z,11.55
2023-08-20T04:00:23.307Z,12.13
2023-08-20T04:02:49.751Z,10.70
2023-08-20T04:05:16.248Z,12.52
2023-08-20T04:07:42.672Z,13.05
2023-08-20T04:10:09.416Z,10.90
2023-08-20T04:12:35.787Z,9.82
2023-08-20T04:15:02.210Z,9.82
2023-08-20T04:17:28.770Z,13.43
2023-08-20T04:19:55.137Z,10.60
2023-08-20T04:22:21.486Z,10.02
2023-08-20T04:24:47.942Z,9.70
2023-08-20T04:27:14.288Z,15.10
2023-08-20T04:29:40.650Z,14.18
2023-08-20T04:32:07.007Z,10.55
2023-08-20T04:34:33.415Z,11.00
2023-08-20T04:36:59.858Z,11.55
2023-08-20T04:39:26.249Z,13.55
2023-08-20T04:41:52.712Z,16.50
2023-08-20T04:44:19.114Z,12.43
2023-08-20T04:46:45.515Z,10.57
2023-08-20T04:49:11.914Z,16.73
2023-08-20T04:51:38.272Z,19.35
2023-08-20T04:54:04.988Z,14.43
2023-08-20T04:56:31.395Z,16.80
2023-08-20T04:58:57.897Z,13.23
2023-08-20T05:01:24.337Z,16.40
2023-08-20T05:03:50.748Z,14.40
2023-08-20T05:06:17.110Z,13.98
2023-08-20T05:08:43.911Z,13.90
2023-08-20T05:11:10.313Z,12.70
2023-08-20T05:13:36.679Z,12.35
2023-08-20T05:16:03.162Z,12.25
2023-08-20T05:18:29.553Z,11.77
2023-08-20T05:20:55.899Z,13.80
2023-08-20T05:23:22.257Z,12.00
2023-08-20T05:25:48.622Z,13.32
2023-08-20T05:28:15.012Z,10.73
2023-08-20T05:30:41.367Z,17.77
2023-08-20T05:33:07.848Z,14.35
2023-08-20T05:35:34.210Z,11.90
2023-08-20T05:38:00.594Z,16.77
2023-08-20T05:40:26.966Z,16.67
2023-08-20T05:42:53.313Z,11.02
2023-08-20T05:45:19.686Z,14.38
2023-08-20T05:47:46.108Z,11.98
2023-08-20T05:50:12.480Z,17.58
2023-08-20T05:52:39.040Z,11.85
2023-08-20T05:55:05.915Z,12.32
2023-08-20T05:57:32.363Z,11.30
2023-08-20T05:59:58.720Z,12.88
2023-08-20T06:02:25.140Z,10.43
2023-08-20T06:04:51.554Z,8.60
2023-08-20T06:07:17.941Z,6.75
2023-08-20T06:09:44.318Z,7.72
2023-08-20T06:12:10.672Z,5.88
2023-08-20T06:14:37.055Z,8.52
2023-08-20T06:17:03.471Z,9.00
2023-08-20T06:19:29.814Z,9.82
2023-08-20T06:21:56.189Z,7.10
2023-08-20T06:24:22.572Z,8.70
2023-08-20T06:26:48.923Z,10.82
2023-08-20T06:29:15.370Z,8.10
2023-08-20T06:31:41.877Z,10.13
2023-08-20T06:34:08.369Z,8.85
2023-08-20T06:36:34.809Z,6.97
2023-08-20T06:39:01.171Z,10.60
2023-08-20T06:41:27.613Z,9.65
2023-08-20T06:43:54.054Z,7.28
2023-08-20T06:46:20.449Z,7.18
2023-08-20T06:48:46.885Z,7.65
2023-08-20T06:51:14.240Z,9.10
2023-08-20T06:53:40.924Z,8.98
2023-08-20T06:56:10.554Z,6.20
2023-08-20T06:58:37.049Z,7.82
2023-08-20T07:01:03.575Z,9.57
2023-08-20T07:03:29.936Z,8.73
2023-08-20T07:05:56.341Z,9.63
2023-08-20T07:08:22.692Z,9.18
2023-08-20T07:10:49.057Z,10.02
2023-08-20T07:13:15.406Z,10.95
2023-08-20T07:15:41.807Z,9.00
2023-08-20T07:18:08.248Z,10.05
2023-08-20T07:20:34.737Z,9.73
2023-08-20T07:23:02.109Z,7.40
2023-08-20T07:25:29.538Z,7.55
2023-08-20T07:27:55.918Z,11.95
2023-08-20T07:30:22.309Z,6.13
2023-08-20T07:32:48.701Z,9.38
2023-08-20T07:35:16.308Z,9.48
2023-08-20T07:37:43.464Z,10.45
2023-08-20T07:40:10.695Z,10.20
2023-08-20T07:42:37.764Z,11.48
2023-08-20T07:45:04.374Z,13.52
2023-08-20T07:47:30.900Z,7.65
2023-08-20T07:49:57.321Z,8.43
2023-08-20T07:52:23.692Z,8.57
2023-08-20T07:54:50.077Z,7.70
2023-08-20T07:57:16.462Z,7.53
2023-08-20T07:59:42.855Z,8.45
2023-08-20T08:02:09.201Z,9.45
2023-08-20T08:04:36.606Z,12.45
2023-08-20T08:07:03.514Z,12.63
2023-08-20T08:09:31.799Z,9.82
2023-08-20T08:11:59.674Z,11.52
2023-08-20T08:14:26.469Z,12.95
2023-08-20T08:16:53.153Z,11.05
2023-08-20T08:19:19.860Z,12.57
2023-08-20T08:21:46.665Z,10.85
2023-08-20T08:24:14.106Z,9.35
2023-08-20T08:26:42.200Z,11.90
2023-08-20T08:29:09.414Z,9.98
2023-08-20T08:31:36.114Z,10.45
2023-08-20T08:34:03.357Z,11.45
2023-08-20T08:36:29.860Z,13.13
2023-08-20T08:38:56.224Z,12.38
2023-08-20T08:41:23.900Z,12.38
2023-08-20T08:43:50.655Z,14.88
2023-08-20T08:46:17.534Z,14.18
2023-08-20T08:48:46.792Z,15.40
2023-08-20T08:51:14.054Z,17.80
2023-08-20T08:53:42.644Z,12.75
2023-08-20T08:56:09.014Z,17.70
2023-08-20T08:58:35.361Z,12.40
2023-08-20T09:01:01.854Z,13.60
2023-08-20T09:03:28.364Z,16.17
2023-08-20T09:05:57.449Z,17.40
2023-08-20T09:08:27.953Z,14.65
2023-08-20T09:10:55.720Z,13.75
2023-08-20T09:13:26.569Z,14.80
2023-08-20T09:15:54.229Z,13.48
2023-08-20T09:18:21.413Z,9.60
2023-08-20T09:20:51.524Z,12.95
2023-08-20T09:23:18.074Z,6.93
2023-08-20T09:25:44.488Z,11.30
2023-08-20T09:28:10.919Z,11.45
2023-08-20T09:30:38.280Z,9.68
2023-08-20T09:33:14.213Z,13.00
2023-08-20T09:35:50.262Z,11.20
2023-08-20T09:38:20.477Z,9.23
2023-08-20T09:40:50.191Z,11.57
2023-08-20T09:43:17.637Z,7.60
2023-08-20T09:45:46.288Z,7.65
2023-08-20T09:48:17.729Z,8.65
2023-08-20T09:50:44.710Z,8.95
2023-08-20T09:53:29.129Z,8.88
2023-08-20T09:56:02.271Z,7.25
2023-08-20T09:58:29.031Z,7.72
2023-08-20T10:00:55.817Z,7.45
2023-08-20T10:03:22.921Z,7.25
2023-08-20T10:05:50.982Z,7.25
2023-08-20T10:08:18.040Z,7.13
2023-08-20T10:10:45.603Z,7.45
2023-08-20T10:13:14.250Z,6.90
2023-08-20T10:15:43.958Z,5.80
2023-08-20T10:18:12.155Z,6.78
2023-08-20T10:20:40.205Z,4.93
2023-08-20T10:23:06.629Z,4.72
2023-08-20T10:25:41.879Z,5.78
2023-08-20T10:28:27.750Z,6.35
2023-08-20T10:31:11.279Z,5.85
2023-08-20T10:33:57.163Z,6.82
2023-08-20T10:36:25.182Z,5.68
2023-08-20T10:38:51.582Z,5.30
2023-08-20T10:41:26.210Z,7.80
2023-08-20T10:43:52.594Z,5.45
2023-08-20T10:46:20.368Z,7.70
2023-08-20T10:48:52.619Z,6.22
2023-08-20T10:51:26.238Z,6.80
2023-08-20T10:54:13.055Z,7.40
2023-08-20T10:56:41.055Z,6.30
2023-08-20T10:59:26.368Z,6.18
2023-08-20T11:01:58.613Z,9.73
2023-08-20T11:04:28.678Z,6.50
2023-08-20T11:06:57.652Z,8.05
2023-08-20T11:09:24.913Z,7.28
2023-08-20T11:11:52.118Z,5.57
2023-08-20T11:14:20.077Z,7.38
2023-08-20T11:16:47.695Z,6.05
2023-08-20T11:19:14.411Z,5.85
2023-08-20T11:21:42.412Z,5.80
2023-08-20T11:24:10.173Z,5.40
2023-08-20T11:26:39.333Z,8.38
2023-08-20T11:29:14.565Z,5.60
2023-08-20T11:31:41.944Z,6.93
2023-08-20T11:34:08.537Z,8.20
2023-08-20T11:36:35.824Z,6.25
2023-08-20T11:39:02.320Z,9.32
2023-08-20T11:41:28.772Z,5.68
2023-08-20T11:43:55.132Z,5.53
2023-08-20T11:46:24.113Z,6.50
2023-08-20T11:49:08.475Z,4.80
2023-08-20T11:51:39.113Z,5.07
2023-08-20T11:54:06.965Z,5.35
2023-08-20T11:56:34.824Z,5.13
2023-08-20T11:59:02.657Z,5.93
2023-08-20T12:01:32.926Z,7.25
2023-08-20T12:04:07.553Z,6.60
2023-08-20T12:06:35.042Z,5.65
2023-08-20T12:09:02.368Z,6.30
2023-08-20T12:11:29.259Z,6.45
2023-08-20T12:13:56.249Z,12.27
2023-08-20T12:16:24.016Z,7.10
2023-08-20T12:18:51.001Z,6.30
2023-08-20T12:21:17.438Z,5.35
2023-08-20T12:23:43.814Z,4.93
2023-08-20T12:26:10.148Z,7.45
2023-08-20T12:28:36.494Z,5.60
2023-08-20T12:31:02.896Z,5.72
2023-08-20T12:33:29.286Z,6.40
2023-08-20T12:35:56.530Z,5.68
2023-08-20T12:38:23.722Z,6.25
2023-08-20T12:40:50.119Z,6.70
2023-08-20T12:43:16.456Z,5.30
2023-08-20T12:45:42.808Z,8.02
2023-08-20T12:48:09.208Z,6.47
2023-08-20T12:50:35.565Z,5.47
2023-08-20T12:53:01.910Z,8.10
2023-08-20T12:55:28.253Z,5.85
2023-08-20T12:57:59.293Z,6.03
2023-08-20T13:00:26.940Z,5.90
2023-08-20T13:02:54.956Z,7.32
2023-08-20T13:05:23.000Z,5.90
2023-08-20T13:07:49.664Z,7.18
2023-08-20T13:10:16.526Z,8.38
2023-08-20T13:12:47.212Z,9.27
2023-08-20T13:15:14.117Z,6.35
2023-08-20T13:17:40.839Z,6.07
2023-08-20T13:20:07.851Z,8.10
2023-08-20T13:22:34.204Z,7.93
2023-08-20T13:25:00.595Z,9.52
2023-08-20T13:27:26.971Z,6.75
2023-08-20T13:29:53.304Z,8.05
2023-08-20T13:32:19.777Z,5.53
2023-08-20T13:34:46.131Z,7.88
2023-08-20T13:37:12.520Z,6.28
2023-08-20T13:39:38.889Z,8.60
2023-08-20T13:42:05.343Z,5.35
2023-08-20T13:44:31.696Z,7.20
2023-08-20T13:46:58.102Z,11.10
2023-08-20T13:49:24.484Z,11.15
2023-08-20T13:51:50.859Z,5.68
2023-08-20T13:54:17.254Z,9.52
2023-08-20T13:56:44.186Z,7.53
2023-08-20T13:59:10.984Z,6.00
2023-08-20T14:01:37.451Z,6.75
2023-08-20T14:04:04.179Z,7.95
2023-08-20T14:06:30.719Z,5.95
2023-08-20T14:08:57.105Z,5.65
2023-08-20T14:11:23.520Z,9.48
2023-08-20T14:13:49.897Z,5.60
2023-08-20T14:16:16.326Z,7.10
2023-08-20T14:18:42.724Z,10.10
2023-08-20T14:21:09.102Z,6.82
2023-08-20T14:23:35.451Z,7.18
2023-08-20T14:26:02.141Z,13.98
2023-08-20T14:28:28.503Z,10.60
2023-08-20T14:30:54.893Z,13.77
2023-08-20T14:33:21.698Z,18.48
2023-08-20T14:35:48.199Z,13.70
2023-08-20T14:38:14.560Z,7.60
2023-08-20T14:40:41.415Z,16.65
2023-08-20T14:43:08.618Z,11.07
2023-08-20T14:45:35.207Z,7.18
2023-08-20T14:48:01.630Z,8.02
2023-08-20T14:50:28.028Z,6.40
2023-08-20T14:52:54.395Z,8.25
2023-08-20T14:55:21.049Z,5.93
2023-08-20T14:57:52.115Z,4.57
2023-08-20T15:00:19.682Z,6.82
2023-08-20T15:02:46.442Z,6.63
2023-08-20T15:05:13.489Z,8.25
2023-08-20T15:07:40.224Z,11.05
2023-08-20T15:10:07.369Z,10.00
2023-08-20T15:12:37.799Z,7.50
2023-08-20T15:15:05.207Z,7.03
2023-08-20T15:17:32.378Z,7.63
2023-08-20T15:19:59.485Z,6.97
2023-08-20T15:22:25.833Z,6.60
2023-08-20T15:24:52.208Z,8.63
2023-08-20T15:27:19.201Z,5.38
2023-08-20T15:29:45.964Z,5.75
2023-08-20T15:32:12.601Z,5.45
2023-08-20T15:34:39.027Z,6.43
2023-08-20T15:37:05.405Z,5.20
2023-08-20T15:39:34.884Z,5.72
2023-08-20T15:42:01.992Z,5.80
2023-08-20T15:44:28.359Z,6.50
2023-08-20T15:46:54.734Z,5.70
2023-08-20T15:49:21.084Z,7.50
2023-08-20T15:51:47.501Z,6.60
2023-08-20T15:54:13.895Z,8.80
2023-08-20T15:56:40.761Z,7.78
2023-08-20T15:59:07.241Z,4.50
2023-08-20T16:01:33.698Z,13.07
2023-08-20T16:04:00.327Z,5.93
2023-08-20T16:06:26.821Z,9.15
2023-08-20T16:08:54.289Z,6.03
2023-08-20T16:11:20.697Z,4.85
2023-08-20T16:13:47.088Z,4.95
2023-08-20T16:16:14.374Z,5.57
2023-08-20T16:18:40.854Z,8.73
2023-08-20T16:21:07.219Z,5.85
2023-08-20T16:23:33.584Z,7.72
2023-08-20T16:26:00.090Z,5.97
2023-08-20T16:28:26.466Z,7.28
2023-08-20T16:30:53.713Z,6.47
2023-08-20T16:33:20.391Z,6.40
2023-08-20T16:35:47.429Z,6.40
2023-08-20T16:38:13.835Z,7.90
2023-08-20T16:40:40.229Z,7.20
2023-08-20T16:43:06.875Z,5.97
2023-08-20T16:45:33.589Z,6.97
2023-08-20T16:48:00.028Z,7.97
2023-08-20T16:50:26.599Z,8.07
2023-08-20T16:52:53.213Z,6.15
2023-08-20T16:55:19.784Z,11.65
2023-08-20T16:57:46.168Z,7.65
2023-08-20T17:00:13.018Z,12.63
2023-08-20T17:02:39.587Z,6.32
2023-08-20T17:05:06.331Z,7.18
2023-08-20T17:07:32.871Z,9.93
2023-08-20T17:09:59.349Z,7.28
2023-08-20T17:12:26.208Z,9.70
2023-08-20T17:14:53.292Z,7.78
2023-08-20T17:17:22.219Z,9.52
2023-08-20T17:19:48.586Z,7.00
2023-08-20T17:22:14.948Z,8.05
2023-08-20T17:24:41.298Z,9.85
2023-08-20T17:27:07.707Z,9.45
2023-08-20T17:29:34.089Z,9.27
2023-08-20T17:32:00.490Z,6.03
2023-08-20T17:34:26.853Z,8.60
2023-08-20T17:36:53.208Z,10.75
2023-08-20T17:39:20.036Z,9.68
2023-08-20T17:41:46.771Z,6.95
2023-08-20T17:44:13.212Z,7.65
2023-08-20T17:46:46.857Z,10.30
2023-08-20T17:49:14.107Z,8.17
2023-08-20T17:51:41.105Z,8.30
2023-08-20T17:54:08.062Z,8.05
2023-08-20T17:56:35.254Z,8.95
2023-08-20T17:59:01.866Z,6.30
2023-08-20T18:01:28.311Z,7.68
2023-08-20T18:03:54.709Z,10.05
2023-08-20T18:06:21.163Z,8.10
2023-08-20T18:08:47.621Z,11.73
2023-08-20T18:11:13.995Z,6.63
2023-08-20T18:13:40.407Z,6.65
2023-08-20T18:16:07.101Z,11.88
2023-08-20T18:18:33.451Z,7.22
2023-08-20T18:20:59.952Z,6.70
2023-08-20T18:23:26.397Z,10.90
2023-08-20T18:25:53.196Z,9.48
2023-08-20T18:28:19.693Z,7.97
2023-08-20T18:30:53.341Z,6.70
2023-08-20T18:33:22.133Z,12.57
2023-08-20T18:35:49.233Z,10.05
2023-08-20T18:38:36.449Z,11.38
2023-08-20T18:41:04.324Z,8.05
2023-08-20T18:43:31.432Z,11.02
2023-08-20T18:45:57.897Z,6.38
2023-08-20T18:48:24.346Z,5.78
2023-08-20T18:50:50.753Z,11.45
2023-08-20T18:53:17.179Z,13.48
2023-08-20T18:55:43.615Z,13.25
2023-08-20T18:58:09.951Z,11.85
2023-08-20T19:00:36.417Z,9.48
2023-08-20T19:03:02.866Z,13.82
2023-08-20T19:05:30.567Z,11.60
2023-08-20T19:07:56.964Z,6.43
2023-08-20T19:10:23.856Z,6.75
2023-08-20T19:12:50.356Z,9.73
2023-08-20T19:15:16.734Z,8.55
2023-08-20T19:17:43.174Z,7.80
2023-08-20T19:20:09.799Z,8.50
2023-08-20T19:22:38.049Z,6.72
2023-08-20T19:25:05.154Z,7.22
2023-08-20T19:27:31.853Z,8.32
2023-08-20T19:29:58.363Z,9.15
2023-08-20T19:32:25.288Z,7.35
2023-08-20T19:34:52.501Z,7.88
2023-08-20T19:37:19.433Z,17.27
2023-08-20T19:39:46.776Z,5.38
2023-08-20T19:42:13.272Z,6.75
2023-08-20T19:44:40.799Z,7.82
2023-08-20T19:47:07.440Z,5.82
2023-08-20T19:49:33.881Z,6.88
2023-08-20T19:52:00.474Z,5.50
2023-08-20T19:54:26.822Z,5.60
2023-08-20T19:56:53.546Z,9.82
2023-08-20T19:59:19.936Z,8.63
2023-08-20T20:01:49.914Z,4.95
2023-08-20T20:04:16.584Z,5.55
2023-08-20T20:06:44.126Z,6.75
2023-08-20T20:09:10.850Z,4.97
2023-08-20T20:11:38.720Z,4.05
2023-08-20T20:14:05.837Z,4.95
2023-08-20T20:16:32.341Z,5.78
2023-08-20T20:18:58.939Z,5.05
2023-08-20T20:21:25.407Z,6.82
2023-08-20T20:23:51.800Z,4.65
2023-08-20T20:26:18.192Z,4.55
2023-08-20T20:28:44.988Z,5.55
2023-08-20T20:31:11.947Z,8.30
2023-08-20T20:33:38.499Z,4.05
2023-08-20T20:36:06.765Z,6.40
2023-08-20T20:38:34.959Z,8.05
2023-08-20T20:41:01.344Z,6.60
2023-08-20T20:43:27.738Z,3.50
2023-08-20T20:45:54.195Z,6.15
2023-08-20T20:48:20.618Z,6.78
2023-08-20T20:50:47.055Z,6.97
2023-08-20T20:53:14.412Z,8.45
2023-08-20T20:55:40.833Z,6.50
2023-08-20T20:58:07.816Z,15.55
2023-08-20T21:00:34.184Z,6.78
2023-08-20T21:03:00.832Z,6.57
2023-08-20T21:05:27.326Z,4.07
2023-08-20T21:07:53.733Z,7.00
2023-08-20T21:10:20.097Z,5.95
2023-08-20T21:12:46.473Z,7.03
2023-08-20T21:15:13.130Z,6.95
2023-08-20T21:17:39.586Z,6.40
2023-08-20T21:20:06.841Z,6.13
2023-08-20T21:22:33.249Z,7.18
2023-08-20T21:24:59.627Z,4.82
2023-08-20T21:27:26.332Z,8.55
2023-08-20T21:29:52.726Z,5.93
2023-08-20T21:32:19.102Z,6.32
2023-08-20T21:34:46.522Z,6.45
2023-08-20T21:37:12.885Z,5.80
2023-08-20T21:39:39.286Z,7.05
2023-08-20T21:42:05.797Z,6.28
2023-08-20T21:44:32.169Z,9.25
2023-08-20T21:47:01.323Z,6.43
2023-08-20T21:49:27.657Z,6.43
2023-08-20T21:51:54.200Z,7.30
2023-08-20T21:54:20.666Z,4.40
2023-08-20T21:56:51.144Z,9.57
2023-08-20T21:59:17.834Z,7.28
2023-08-20T22:01:44.237Z,4.05
2023-08-20T22:04:10.631Z,9.02
2023-08-20T22:06:37.049Z,6.20
2023-08-20T22:09:03.461Z,9.23
2023-08-20T22:11:29.861Z,6.95
2023-08-20T22:13:56.213Z,5.63
2023-08-20T22:16:22.619Z,4.57
2023-08-20T22:18:49.059Z,9.57
2023-08-20T22:21:15.422Z,5.30
2023-08-20T22:23:41.816Z,5.95
2023-08-20T22:26:08.179Z,8.05
2023-08-20T22:28:34.560Z,8.63
2023-08-20T22:31:02.188Z,8.38
2023-08-20T22:33:28.595Z,5.15
2023-08-20T22:35:54.947Z,8.38
2023-08-20T22:38:21.403Z,4.55
2023-08-20T22:40:47.890Z,4.82
2023-08-20T22:43:14.344Z,4.15
2023-08-20T22:45:40.791Z,5.57
2023-08-20T22:48:07.401Z,11.55
2023-08-20T22:50:33.836Z,4.05
2023-08-20T22:53:00.266Z,6.20
2023-08-20T22:55:29.577Z,6.80
2023-08-20T22:57:58.655Z,7.70
2023-08-20T23:00:25.314Z,7.75
2023-08-20T23:02:51.785Z,5.05
2023-08-20T23:05:18.155Z,3.53
2023-08-20T23:07:44.595Z,7.25
2023-08-20T23:10:11.192Z,4.30
2023-08-20T23:12:38.027Z,8.05
2023-08-20T23:15:05.806Z,5.95
2023-08-20T23:17:32.411Z,4.28
2023-08-20T23:19:58.917Z,6.05
2023-08-20T23:22:25.270Z,4.72
2023-08-20T23:24:51.765Z,5.03
2023-08-20T23:27:18.130Z,5.15
2023-08-20T23:29:44.607Z,5.70
2023-08-20T23:32:10.985Z,4.97
2023-08-20T23:34:37.443Z,9.27
2023-08-20T23:37:03.882Z,7.13
2023-08-20T23:39:30.237Z,8.15
2023-08-20T23:41:56.618Z,5.57
2023-08-20T23:44:23.128Z,8.60
2023-08-20T23:46:49.662Z,7.28
2023-08-20T23:49:18.000Z,5.15
2023-08-20T23:51:44.419Z,7.50
2023-08-20T23:54:10.777Z,9.20
2023-08-20T23:56:37.162Z,6.55
2023-08-20T23:59:03.719Z,6.22
